This is the latest recevied weather packets stored in our database for station/object N1JOV-7. If no packets are shown the sender has not sent any weather packets the latest 10 day(s).
| Time | Temp. | Humidity | Pressure | Rain* | Wind** | Luminosity | Snow |
|---|---|---|---|---|---|---|---|
| 1777164662 | 6.11° C | 71% | 1018.3 hPa | 0 mm | - | - | - |
| 1777164062 | 6.11° C | 71% | 1018.1 hPa | 0 mm | - | - | - |
| 1777163462 | 6.67° C | 70% | 1018.1 hPa | 0 mm | - | - | - |
| 1777162862 | 6.67° C | 69% | 1017.8 hPa | 0 mm | - | - | - |
| 1777162261 | 7.22° C | 67% | 1017.7 hPa | 0 mm | - | - | - |
| 1777161661 | 7.78° C | 66% | 1017.6 hPa | 0 mm | - | - | - |
| 1777161061 | 7.78° C | 66% | 1017.5 hPa | 0 mm | - | - | - |
| 1777160462 | 7.78° C | 65% | 1017.5 hPa | 0 mm | - | - | - |
| 1777159862 | 8.33° C | 65% | 1017.3 hPa | 0 mm | - | - | - |
| 1777159262 | 8.33° C | 64% | 1017.2 hPa | 0 mm | - | - | - |
| 1777158662 | 8.89° C | 64% | 1017 hPa | 0 mm | - | - | - |
| 1777158062 | 9.44° C | 62% | 1017.1 hPa | 0 mm | - | - | - |
| 1777157461 | 9.44° C | 61% | 1017 hPa | 0 mm | - | - | - |
| 1777156861 | 10° C | 58% | 1017.2 hPa | 0 mm | - | - | - |
| 1777156262 | 11.11° C | 54% | 1017 hPa | 0 mm | - | - | - |
| 1777155662 | 11.11° C | 53% | 1016.9 hPa | 0 mm | - | - | - |
| 1777155062 | 11.67° C | 52% | 1016.9 hPa | 0 mm | - | - | - |
| 1777154462 | 12.22° C | 51% | 1016.7 hPa | 0 mm | - | - | - |
| 1777153862 | 11.67° C | 50% | 1016.8 hPa | 0 mm | - | - | - |
| 1777153261 | 12.78° C | 49% | 1016.8 hPa | 0 mm | - | - | - |
| 1777152661 | 12.22° C | 49% | 1016.7 hPa | 0 mm | - | - | - |
| 1777152061 | 12.22° C | 51% | 1016.6 hPa | 0 mm | - | - | - |
| 1777151462 | 11.67° C | 51% | 1016.6 hPa | 0 mm | - | - | - |
| 1777150862 | 13.33° C | 48% | 1016.4 hPa | 0 mm | - | - | - |
| 1777150263 | 12.78° C | 48% | 1016.4 hPa | 0 mm | - | - | - |
* Rain latest hour (hover to see other rain measurements)
** Current wind speed in m/s (hover to see current wind gust speed)